Santa Fe, New Mexico
Current Conditions -  °F | °C
As of 7:53 AM on Saturday 20 Dec 2014 (Local Time) from KSAF Reporting Station
Clear Clear  
Wind Chill: 14°   Ceiling: Unl
Heat Index: 24°   Visibility: 10mi
Dew Point: 15°   Wind: 10mph
Humidity: 69%   Direction: 340°NNW
Pressure: 30.12"   Gusts: NA
Location:  35.69°N, 105.93°W
Report Text: KSAF 201453Z 34009KT 10SM CLR M04/M09 A3012 RMK AO2 SLP211 T10441094 53004
Loading
Personal Weather Stations






























Interactive Weather Map New forecast layout! Learn more

10-Day Weather Forecast

Advertisements
Track Severe Weather on mobile